sensor_id;sensor_type;location;lat;lon;timestamp;P1;durP1;ratioP1;P2;durP2;ratioP2
27402;SDS011;14862;49.494;8.530;2023-09-08T00:01:28;6.67;;;5.60;;
27402;SDS011;14862;49.494;8.530;2023-09-08T00:03:53;8.40;;;5.60;;
27402;SDS011;14862;49.494;8.530;2023-09-08T00:06:18;6.53;;;5.47;;
27402;SDS011;14862;49.494;8.530;2023-09-08T00:08:43;6.03;;;5.30;;
27402;SDS011;14862;49.494;8.530;2023-09-08T00:11:09;6.70;;;5.72;;
27402;SDS011;14862;49.494;8.530;2023-09-08T00:13:34;7.43;;;5.40;;
27402;SDS011;14862;49.494;8.530;2023-09-08T00:15:59;7.53;;;6.05;;
27402;SDS011;14862;49.494;8.530;2023-09-08T00:18:24;6.00;;;5.40;;
27402;SDS011;14862;49.494;8.530;2023-09-08T00:20:49;5.97;;;5.38;;
27402;SDS011;14862;49.494;8.530;2023-09-08T00:23:15;7.83;;;5.97;;
27402;SDS011;14862;49.494;8.530;2023-09-08T00:25:40;7.40;;;5.93;;
27402;SDS011;14862;49.494;8.530;2023-09-08T00:28:05;10.68;;;5.70;;
27402;SDS011;14862;49.494;8.530;2023-09-08T00:30:31;7.03;;;5.70;;
27402;SDS011;14862;49.494;8.530;2023-09-08T00:32:59;8.23;;;5.82;;
27402;SDS011;14862;49.494;8.530;2023-09-08T00:35:24;7.53;;;5.53;;
27402;SDS011;14862;49.494;8.530;2023-09-08T00:37:49;8.60;;;6.38;;
27402;SDS011;14862;49.494;8.530;2023-09-08T00:40:14;7.30;;;5.80;;
27402;SDS011;14862;49.494;8.530;2023-09-08T00:42:40;7.13;;;6.00;;
27402;SDS011;14862;49.494;8.530;2023-09-08T00:45:06;8.30;;;6.07;;
27402;SDS011;14862;49.494;8.530;2023-09-08T00:47:32;6.93;;;6.22;;
27402;SDS011;14862;49.494;8.530;2023-09-08T00:49:57;7.47;;;6.15;;
27402;SDS011;14862;49.494;8.530;2023-09-08T00:52:23;7.32;;;6.25;;
27402;SDS011;14862;49.494;8.530;2023-09-08T00:54:48;8.30;;;6.47;;
27402;SDS011;14862;49.494;8.530;2023-09-08T00:57:13;8.20;;;6.40;;
27402;SDS011;14862;49.494;8.530;2023-09-08T00:59:38;8.93;;;6.23;;
27402;SDS011;14862;49.494;8.530;2023-09-08T01:02:04;7.35;;;6.50;;
27402;SDS011;14862;49.494;8.530;2023-09-08T01:04:29;7.15;;;5.93;;
27402;SDS011;14862;49.494;8.530;2023-09-08T01:06:55;8.77;;;6.38;;
27402;SDS011;14862;49.494;8.530;2023-09-08T01:09:21;10.13;;;6.50;;
27402;SDS011;14862;49.494;8.530;2023-09-08T01:11:47;6.68;;;6.03;;
27402;SDS011;14862;49.494;8.530;2023-09-08T01:14:12;8.18;;;6.45;;
27402;SDS011;14862;49.494;8.530;2023-09-08T01:16:38;9.70;;;6.95;;
27402;SDS011;14862;49.494;8.530;2023-09-08T01:19:05;7.38;;;5.93;;
27402;SDS011;14862;49.494;8.530;2023-09-08T01:21:44;7.13;;;6.03;;
27402;SDS011;14862;49.494;8.530;2023-09-08T01:27:00;7.50;;;6.43;;
27402;SDS011;14862;49.494;8.530;2023-09-08T01:29:25;9.43;;;6.32;;
27402;SDS011;14862;49.494;8.530;2023-09-08T01:31:51;8.25;;;6.75;;
27402;SDS011;14862;49.494;8.530;2023-09-08T01:34:17;7.95;;;6.88;;
27402;SDS011;14862;49.494;8.530;2023-09-08T01:36:43;8.23;;;6.88;;
27402;SDS011;14862;49.494;8.530;2023-09-08T01:39:09;6.65;;;5.78;;
27402;SDS011;14862;49.494;8.530;2023-09-08T01:41:35;9.07;;;6.30;;
27402;SDS011;14862;49.494;8.530;2023-09-08T01:44:00;10.30;;;6.13;;
27402;SDS011;14862;49.494;8.530;2023-09-08T01:46:30;7.25;;;6.50;;
27402;SDS011;14862;49.494;8.530;2023-09-08T01:48:55;11.98;;;6.28;;
27402;SDS011;14862;49.494;8.530;2023-09-08T01:51:20;7.43;;;6.65;;
27402;SDS011;14862;49.494;8.530;2023-09-08T01:53:45;10.77;;;6.77;;
27402;SDS011;14862;49.494;8.530;2023-09-08T01:56:11;7.57;;;6.53;;
27402;SDS011;14862;49.494;8.530;2023-09-08T01:58:36;7.40;;;6.70;;
27402;SDS011;14862;49.494;8.530;2023-09-08T02:01:01;7.87;;;7.07;;
27402;SDS011;14862;49.494;8.530;2023-09-08T02:03:30;7.93;;;6.68;;
27402;SDS011;14862;49.494;8.530;2023-09-08T02:05:56;9.27;;;7.00;;
27402;SDS011;14862;49.494;8.530;2023-09-08T02:08:21;9.77;;;7.30;;
27402;SDS011;14862;49.494;8.530;2023-09-08T02:10:46;10.52;;;6.88;;
27402;SDS011;14862;49.494;8.530;2023-09-08T02:13:11;8.17;;;6.27;;
27402;SDS011;14862;49.494;8.530;2023-09-08T02:15:36;8.10;;;6.60;;
27402;SDS011;14862;49.494;8.530;2023-09-08T02:18:02;8.43;;;6.55;;
27402;SDS011;14862;49.494;8.530;2023-09-08T02:20:27;10.63;;;6.82;;
27402;SDS011;14862;49.494;8.530;2023-09-08T02:22:53;9.17;;;7.37;;
27402;SDS011;14862;49.494;8.530;2023-09-08T02:25:18;9.00;;;7.15;;
27402;SDS011;14862;49.494;8.530;2023-09-08T02:27:43;10.07;;;7.47;;
27402;SDS011;14862;49.494;8.530;2023-09-08T02:30:09;9.13;;;6.63;;
27402;SDS011;14862;49.494;8.530;2023-09-08T02:32:34;7.43;;;6.70;;
27402;SDS011;14862;49.494;8.530;2023-09-08T02:34:59;7.97;;;6.63;;
27402;SDS011;14862;49.494;8.530;2023-09-08T02:37:24;7.73;;;6.87;;
27402;SDS011;14862;49.494;8.530;2023-09-08T02:39:50;7.13;;;6.43;;
27402;SDS011;14862;49.494;8.530;2023-09-08T02:42:15;10.83;;;7.03;;
27402;SDS011;14862;49.494;8.530;2023-09-08T02:44:40;8.93;;;6.57;;
27402;SDS011;14862;49.494;8.530;2023-09-08T02:47:05;9.40;;;7.55;;
27402;SDS011;14862;49.494;8.530;2023-09-08T02:49:31;7.53;;;6.47;;
27402;SDS011;14862;49.494;8.530;2023-09-08T02:51:56;8.18;;;6.90;;
27402;SDS011;14862;49.494;8.530;2023-09-08T02:54:22;10.13;;;7.43;;
27402;SDS011;14862;49.494;8.530;2023-09-08T02:56:47;9.53;;;7.40;;
27402;SDS011;14862;49.494;8.530;2023-09-08T02:59:12;7.13;;;6.37;;
27402;SDS011;14862;49.494;8.530;2023-09-08T03:01:37;10.90;;;7.03;;
27402;SDS011;14862;49.494;8.530;2023-09-08T03:04:02;9.33;;;7.70;;
27402;SDS011;14862;49.494;8.530;2023-09-08T03:06:27;9.45;;;7.75;;
27402;SDS011;14862;49.494;8.530;2023-09-08T03:08:53;9.47;;;7.50;;
27402;SDS011;14862;49.494;8.530;2023-09-08T03:11:18;11.03;;;8.47;;
27402;SDS011;14862;49.494;8.530;2023-09-08T03:13:43;9.53;;;8.53;;
27402;SDS011;14862;49.494;8.530;2023-09-08T03:16:08;12.73;;;9.40;;
27402;SDS011;14862;49.494;8.530;2023-09-08T03:18:34;10.57;;;9.00;;
27402;SDS011;14862;49.494;8.530;2023-09-08T03:21:01;9.80;;;8.65;;
27402;SDS011;14862;49.494;8.530;2023-09-08T03:23:33;14.00;;;10.10;;
27402;SDS011;14862;49.494;8.530;2023-09-08T03:25:58;10.13;;;9.07;;
27402;SDS011;14862;49.494;8.530;2023-09-08T03:28:24;13.07;;;9.57;;
27402;SDS011;14862;49.494;8.530;2023-09-08T03:30:49;11.73;;;10.30;;
27402;SDS011;14862;49.494;8.530;2023-09-08T03:33:14;11.80;;;9.00;;
27402;SDS011;14862;49.494;8.530;2023-09-08T03:35:39;10.63;;;9.43;;
27402;SDS011;14862;49.494;8.530;2023-09-08T03:38:04;12.47;;;10.67;;
27402;SDS011;14862;49.494;8.530;2023-09-08T03:40:30;12.33;;;9.73;;
27402;SDS011;14862;49.494;8.530;2023-09-08T03:42:55;10.85;;;9.70;;
27402;SDS011;14862;49.494;8.530;2023-09-08T03:45:20;13.65;;;10.13;;
27402;SDS011;14862;49.494;8.530;2023-09-08T03:47:45;12.07;;;10.57;;
27402;SDS011;14862;49.494;8.530;2023-09-08T03:50:10;16.30;;;11.30;;
27402;SDS011;14862;49.494;8.530;2023-09-08T03:52:36;11.43;;;10.13;;
27402;SDS011;14862;49.494;8.530;2023-09-08T03:55:01;13.40;;;9.93;;
27402;SDS011;14862;49.494;8.530;2023-09-08T03:57:26;10.07;;;9.07;;
27402;SDS011;14862;49.494;8.530;2023-09-08T03:59:51;9.50;;;8.50;;
27402;SDS011;14862;49.494;8.530;2023-09-08T04:02:16;9.97;;;8.87;;
27402;SDS011;14862;49.494;8.530;2023-09-08T04:04:42;10.07;;;8.90;;
27402;SDS011;14862;49.494;8.530;2023-09-08T04:07:07;11.57;;;10.35;;
27402;SDS011;14862;49.494;8.530;2023-09-08T04:09:32;11.50;;;10.30;;
27402;SDS011;14862;49.494;8.530;2023-09-08T04:11:57;11.68;;;10.13;;
27402;SDS011;14862;49.494;8.530;2023-09-08T04:14:22;11.07;;;9.27;;
27402;SDS011;14862;49.494;8.530;2023-09-08T04:16:53;10.55;;;9.35;;
27402;SDS011;14862;49.494;8.530;2023-09-08T04:19:18;12.25;;;9.50;;
27402;SDS011;14862;49.494;8.530;2023-09-08T04:21:43;10.43;;;9.33;;
27402;SDS011;14862;49.494;8.530;2023-09-08T04:24:08;10.73;;;9.27;;
27402;SDS011;14862;49.494;8.530;2023-09-08T04:26:35;12.95;;;9.63;;
27402;SDS011;14862;49.494;8.530;2023-09-08T04:29:00;12.52;;;9.23;;
27402;SDS011;14862;49.494;8.530;2023-09-08T04:31:25;14.53;;;9.70;;
27402;SDS011;14862;49.494;8.530;2023-09-08T04:33:51;11.73;;;10.07;;
27402;SDS011;14862;49.494;8.530;2023-09-08T04:36:18;13.13;;;10.27;;
27402;SDS011;14862;49.494;8.530;2023-09-08T04:38:43;17.93;;;10.20;;
27402;SDS011;14862;49.494;8.530;2023-09-08T04:41:09;11.07;;;9.93;;
27402;SDS011;14862;49.494;8.530;2023-09-08T04:43:34;11.50;;;9.60;;
27402;SDS011;14862;49.494;8.530;2023-09-08T04:45:59;10.13;;;9.03;;
27402;SDS011;14862;49.494;8.530;2023-09-08T04:48:27;12.43;;;9.35;;
27402;SDS011;14862;49.494;8.530;2023-09-08T04:50:53;12.95;;;9.80;;
27402;SDS011;14862;49.494;8.530;2023-09-08T04:53:18;15.57;;;10.17;;
27402;SDS011;14862;49.494;8.530;2023-09-08T04:55:43;15.37;;;11.00;;
27402;SDS011;14862;49.494;8.530;2023-09-08T04:58:08;14.82;;;10.50;;
27402;SDS011;14862;49.494;8.530;2023-09-08T05:00:33;12.53;;;9.57;;
27402;SDS011;14862;49.494;8.530;2023-09-08T05:02:59;14.50;;;10.47;;
27402;SDS011;14862;49.494;8.530;2023-09-08T05:05:24;13.43;;;10.83;;
27402;SDS011;14862;49.494;8.530;2023-09-08T05:07:49;14.27;;;10.50;;
27402;SDS011;14862;49.494;8.530;2023-09-08T05:10:16;10.35;;;9.25;;
27402;SDS011;14862;49.494;8.530;2023-09-08T05:12:41;10.60;;;8.77;;
27402;SDS011;14862;49.494;8.530;2023-09-08T05:15:06;10.80;;;7.87;;
27402;SDS011;14862;49.494;8.530;2023-09-08T05:17:35;11.45;;;7.63;;
27402;SDS011;14862;49.494;8.530;2023-09-08T05:20:01;8.55;;;7.53;;
27402;SDS011;14862;49.494;8.530;2023-09-08T05:22:26;9.07;;;7.65;;
27402;SDS011;14862;49.494;8.530;2023-09-08T05:24:51;13.50;;;7.77;;
27402;SDS011;14862;49.494;8.530;2023-09-08T05:27:16;9.77;;;7.57;;
27402;SDS011;14862;49.494;8.530;2023-09-08T05:29:41;11.27;;;7.20;;
27402;SDS011;14862;49.494;8.530;2023-09-08T05:32:07;12.95;;;7.57;;
27402;SDS011;14862;49.494;8.530;2023-09-08T05:34:32;8.50;;;7.53;;
27402;SDS011;14862;49.494;8.530;2023-09-08T05:36:57;8.73;;;6.70;;
27402;SDS011;14862;49.494;8.530;2023-09-08T05:39:22;7.53;;;6.72;;
27402;SDS011;14862;49.494;8.530;2023-09-08T05:41:47;8.03;;;6.47;;
27402;SDS011;14862;49.494;8.530;2023-09-08T05:44:13;10.02;;;6.43;;
27402;SDS011;14862;49.494;8.530;2023-09-08T05:46:38;7.70;;;5.87;;
27402;SDS011;14862;49.494;8.530;2023-09-08T05:49:03;8.20;;;6.37;;
27402;SDS011;14862;49.494;8.530;2023-09-08T05:51:28;7.65;;;6.55;;
27402;SDS011;14862;49.494;8.530;2023-09-08T05:53:53;7.73;;;6.93;;
27402;SDS011;14862;49.494;8.530;2023-09-08T05:56:19;9.85;;;6.35;;
27402;SDS011;14862;49.494;8.530;2023-09-08T05:58:44;11.07;;;6.93;;
27402;SDS011;14862;49.494;8.530;2023-09-08T06:01:09;8.37;;;6.63;;
27402;SDS011;14862;49.494;8.530;2023-09-08T06:03:35;7.67;;;6.90;;
27402;SDS011;14862;49.494;8.530;2023-09-08T06:06:00;10.48;;;7.25;;
27402;SDS011;14862;49.494;8.530;2023-09-08T06:08:25;9.87;;;6.30;;
27402;SDS011;14862;49.494;8.530;2023-09-08T06:10:50;13.87;;;6.03;;
27402;SDS011;14862;49.494;8.530;2023-09-08T06:13:16;7.55;;;5.97;;
27402;SDS011;14862;49.494;8.530;2023-09-08T06:15:41;13.33;;;5.97;;
27402;SDS011;14862;49.494;8.530;2023-09-08T06:18:06;13.43;;;6.03;;
27402;SDS011;14862;49.494;8.530;2023-09-08T06:20:31;10.57;;;6.00;;
27402;SDS011;14862;49.494;8.530;2023-09-08T06:22:56;10.53;;;5.70;;
27402;SDS011;14862;49.494;8.530;2023-09-08T06:25:22;9.10;;;5.37;;
27402;SDS011;14862;49.494;8.530;2023-09-08T06:27:47;12.33;;;6.00;;
27402;SDS011;14862;49.494;8.530;2023-09-08T06:30:12;8.35;;;5.57;;
27402;SDS011;14862;49.494;8.530;2023-09-08T06:32:41;7.03;;;5.10;;
27402;SDS011;14862;49.494;8.530;2023-09-08T06:35:06;8.93;;;5.93;;
27402;SDS011;14862;49.494;8.530;2023-09-08T06:37:38;4.97;;;4.45;;
27402;SDS011;14862;49.494;8.530;2023-09-08T06:40:04;8.75;;;5.28;;
27402;SDS011;14862;49.494;8.530;2023-09-08T06:42:29;9.93;;;5.45;;
27402;SDS011;14862;49.494;8.530;2023-09-08T06:44:55;7.23;;;4.70;;
27402;SDS011;14862;49.494;8.530;2023-09-08T06:47:20;5.10;;;4.47;;
27402;SDS011;14862;49.494;8.530;2023-09-08T06:49:45;8.90;;;5.43;;
27402;SDS011;14862;49.494;8.530;2023-09-08T06:52:11;9.40;;;4.85;;
27402;SDS011;14862;49.494;8.530;2023-09-08T06:54:36;7.63;;;5.10;;
27402;SDS011;14862;49.494;8.530;2023-09-08T06:57:02;10.43;;;5.50;;
27402;SDS011;14862;49.494;8.530;2023-09-08T06:59:27;7.10;;;5.20;;
27402;SDS011;14862;49.494;8.530;2023-09-08T07:01:52;10.13;;;5.53;;
27402;SDS011;14862;49.494;8.530;2023-09-08T07:04:17;10.60;;;5.53;;
27402;SDS011;14862;49.494;8.530;2023-09-08T07:06:42;7.87;;;5.60;;
27402;SDS011;14862;49.494;8.530;2023-09-08T07:09:09;5.10;;;4.38;;
27402;SDS011;14862;49.494;8.530;2023-09-08T07:11:34;8.43;;;4.90;;
27402;SDS011;14862;49.494;8.530;2023-09-08T07:13:59;7.50;;;4.57;;
27402;SDS011;14862;49.494;8.530;2023-09-08T07:16:25;9.30;;;5.07;;
27402;SDS011;14862;49.494;8.530;2023-09-08T07:18:50;9.73;;;4.70;;
27402;SDS011;14862;49.494;8.530;2023-09-08T07:21:15;5.57;;;4.13;;
27402;SDS011;14862;49.494;8.530;2023-09-08T07:23:40;6.43;;;4.10;;
27402;SDS011;14862;49.494;8.530;2023-09-08T07:26:05;5.67;;;5.13;;
27402;SDS011;14862;49.494;8.530;2023-09-08T07:28:31;11.13;;;5.72;;
27402;SDS011;14862;49.494;8.530;2023-09-08T07:31:03;4.43;;;4.03;;
27402;SDS011;14862;49.494;8.530;2023-09-08T07:33:28;6.00;;;4.15;;
27402;SDS011;14862;49.494;8.530;2023-09-08T07:35:54;5.03;;;4.40;;
27402;SDS011;14862;49.494;8.530;2023-09-08T07:38:19;7.63;;;4.50;;
27402;SDS011;14862;49.494;8.530;2023-09-08T07:40:44;5.03;;;3.87;;
27402;SDS011;14862;49.494;8.530;2023-09-08T07:43:09;5.27;;;4.23;;
27402;SDS011;14862;49.494;8.530;2023-09-08T07:45:34;8.50;;;4.27;;
27402;SDS011;14862;49.494;8.530;2023-09-08T07:48:00;8.83;;;4.13;;
27402;SDS011;14862;49.494;8.530;2023-09-08T07:50:26;4.85;;;4.45;;
27402;SDS011;14862;49.494;8.530;2023-09-08T07:52:52;5.45;;;4.65;;
27402;SDS011;14862;49.494;8.530;2023-09-08T07:55:17;5.43;;;4.28;;
27402;SDS011;14862;49.494;8.530;2023-09-08T07:57:44;9.23;;;4.25;;
27402;SDS011;14862;49.494;8.530;2023-09-08T08:00:11;5.53;;;3.90;;
27402;SDS011;14862;49.494;8.530;2023-09-08T08:02:37;8.25;;;4.32;;
27402;SDS011;14862;49.494;8.530;2023-09-08T08:05:03;6.30;;;3.65;;
27402;SDS011;14862;49.494;8.530;2023-09-08T08:07:28;5.78;;;3.92;;
27402;SDS011;14862;49.494;8.530;2023-09-08T08:09:55;4.25;;;3.47;;
27402;SDS011;14862;49.494;8.530;2023-09-08T08:12:20;4.50;;;3.87;;
27402;SDS011;14862;49.494;8.530;2023-09-08T08:14:45;6.27;;;4.10;;
27402;SDS011;14862;49.494;8.530;2023-09-08T08:17:10;3.80;;;3.50;;
27402;SDS011;14862;49.494;8.530;2023-09-08T08:19:36;5.32;;;3.70;;
27402;SDS011;14862;49.494;8.530;2023-09-08T08:22:01;5.97;;;3.63;;
27402;SDS011;14862;49.494;8.530;2023-09-08T08:24:26;6.07;;;4.17;;
27402;SDS011;14862;49.494;8.530;2023-09-08T08:26:51;4.87;;;3.93;;
27402;SDS011;14862;49.494;8.530;2023-09-08T08:29:17;4.90;;;3.77;;
27402;SDS011;14862;49.494;8.530;2023-09-08T08:31:42;4.32;;;3.92;;
27402;SDS011;14862;49.494;8.530;2023-09-08T08:34:07;5.83;;;4.07;;
27402;SDS011;14862;49.494;8.530;2023-09-08T08:36:34;6.28;;;4.13;;
27402;SDS011;14862;49.494;8.530;2023-09-08T08:38:59;6.00;;;3.90;;
27402;SDS011;14862;49.494;8.530;2023-09-08T08:41:24;3.50;;;3.20;;
27402;SDS011;14862;49.494;8.530;2023-09-08T08:43:50;4.97;;;3.50;;
27402;SDS011;14862;49.494;8.530;2023-09-08T08:46:16;4.22;;;3.72;;
27402;SDS011;14862;49.494;8.530;2023-09-08T08:48:42;6.05;;;3.55;;
27402;SDS011;14862;49.494;8.530;2023-09-08T08:51:08;6.47;;;4.17;;
27402;SDS011;14862;49.494;8.530;2023-09-08T08:53:35;3.90;;;3.47;;
27402;SDS011;14862;49.494;8.530;2023-09-08T08:56:00;5.85;;;3.83;;
27402;SDS011;14862;49.494;8.530;2023-09-08T08:58:26;8.23;;;3.78;;
27402;SDS011;14862;49.494;8.530;2023-09-08T09:00:53;4.45;;;4.05;;
27402;SDS011;14862;49.494;8.530;2023-09-08T09:03:20;4.38;;;3.97;;
27402;SDS011;14862;49.494;8.530;2023-09-08T09:05:46;4.10;;;3.70;;
27402;SDS011;14862;49.494;8.530;2023-09-08T09:08:11;7.97;;;4.10;;
27402;SDS011;14862;49.494;8.530;2023-09-08T09:10:37;4.85;;;3.40;;
27402;SDS011;14862;49.494;8.530;2023-09-08T09:13:03;4.30;;;3.90;;
27402;SDS011;14862;49.494;8.530;2023-09-08T09:15:29;6.03;;;3.53;;
27402;SDS011;14862;49.494;8.530;2023-09-08T09:18:04;4.97;;;4.07;;
27402;SDS011;14862;49.494;8.530;2023-09-08T09:20:29;4.72;;;3.63;;
27402;SDS011;14862;49.494;8.530;2023-09-08T09:22:54;4.50;;;3.63;;
27402;SDS011;14862;49.494;8.530;2023-09-08T09:25:23;4.30;;;3.67;;
27402;SDS011;14862;49.494;8.530;2023-09-08T09:27:53;4.90;;;3.70;;
27402;SDS011;14862;49.494;8.530;2023-09-08T09:30:18;5.07;;;3.70;;
27402;SDS011;14862;49.494;8.530;2023-09-08T09:32:43;4.00;;;3.60;;
27402;SDS011;14862;49.494;8.530;2023-09-08T09:35:09;5.18;;;3.67;;
27402;SDS011;14862;49.494;8.530;2023-09-08T09:37:34;5.87;;;3.57;;
27402;SDS011;14862;49.494;8.530;2023-09-08T09:40:00;3.95;;;3.60;;
27402;SDS011;14862;49.494;8.530;2023-09-08T09:42:26;4.40;;;4.00;;
27402;SDS011;14862;49.494;8.530;2023-09-08T09:44:52;5.00;;;3.70;;
27402;SDS011;14862;49.494;8.530;2023-09-08T09:47:18;4.63;;;4.00;;
27402;SDS011;14862;49.494;8.530;2023-09-08T09:49:44;4.35;;;3.88;;
27402;SDS011;14862;49.494;8.530;2023-09-08T09:52:11;4.25;;;3.45;;
27402;SDS011;14862;49.494;8.530;2023-09-08T09:54:37;4.95;;;4.13;;
27402;SDS011;14862;49.494;8.530;2023-09-08T09:57:02;4.85;;;4.43;;
27402;SDS011;14862;49.494;8.530;2023-09-08T09:59:28;4.38;;;3.97;;
27402;SDS011;14862;49.494;8.530;2023-09-08T10:01:53;5.13;;;4.00;;
27402;SDS011;14862;49.494;8.530;2023-09-08T10:04:18;6.83;;;4.80;;
27402;SDS011;14862;49.494;8.530;2023-09-08T10:06:44;4.97;;;4.47;;
27402;SDS011;14862;49.494;8.530;2023-09-08T10:09:10;9.75;;;5.05;;
27402;SDS011;14862;49.494;8.530;2023-09-08T10:11:42;5.45;;;4.32;;
27402;SDS011;14862;49.494;8.530;2023-09-08T10:14:08;6.20;;;5.05;;
27402;SDS011;14862;49.494;8.530;2023-09-08T10:16:36;6.95;;;4.68;;
27402;SDS011;14862;49.494;8.530;2023-09-08T10:19:03;5.60;;;4.82;;
27402;SDS011;14862;49.494;8.530;2023-09-08T10:21:30;6.88;;;4.32;;
27402;SDS011;14862;49.494;8.530;2023-09-08T10:24:00;5.00;;;4.60;;
27402;SDS011;14862;49.494;8.530;2023-09-08T10:26:28;12.82;;;5.90;;
27402;SDS011;14862;49.494;8.530;2023-09-08T10:28:55;6.78;;;5.13;;
27402;SDS011;14862;49.494;8.530;2023-09-08T10:31:25;5.78;;;5.18;;
27402;SDS011;14862;49.494;8.530;2023-09-08T10:33:52;5.68;;;4.97;;
27402;SDS011;14862;49.494;8.530;2023-09-08T10:36:17;5.25;;;4.75;;
27402;SDS011;14862;49.494;8.530;2023-09-08T10:38:42;7.07;;;5.47;;
27402;SDS011;14862;49.494;8.530;2023-09-08T10:43:42;6.60;;;4.50;;
27402;SDS011;14862;49.494;8.530;2023-09-08T10:46:10;5.80;;;5.05;;
27402;SDS011;14862;49.494;8.530;2023-09-08T10:48:43;8.45;;;4.95;;
27402;SDS011;14862;49.494;8.530;2023-09-08T10:51:12;5.35;;;4.63;;
27402;SDS011;14862;49.494;8.530;2023-09-08T10:53:38;5.32;;;4.68;;
27402;SDS011;14862;49.494;8.530;2023-09-08T10:56:04;9.70;;;5.15;;
27402;SDS011;14862;49.494;8.530;2023-09-08T10:58:33;8.47;;;5.20;;
27402;SDS011;14862;49.494;8.530;2023-09-08T11:01:00;5.68;;;4.57;;
27402;SDS011;14862;49.494;8.530;2023-09-08T11:06:03;8.25;;;5.18;;
27402;SDS011;14862;49.494;8.530;2023-09-08T11:08:29;7.03;;;4.50;;
27402;SDS011;14862;49.494;8.530;2023-09-08T11:10:55;5.40;;;4.78;;
27402;SDS011;14862;49.494;8.530;2023-09-08T11:13:20;7.43;;;5.00;;
27402;SDS011;14862;49.494;8.530;2023-09-08T11:15:45;4.53;;;4.13;;
27402;SDS011;14862;49.494;8.530;2023-09-08T11:18:10;6.60;;;4.80;;
27402;SDS011;14862;49.494;8.530;2023-09-08T11:20:36;7.93;;;4.18;;
27402;SDS011;14862;49.494;8.530;2023-09-08T11:23:01;7.53;;;4.60;;
27402;SDS011;14862;49.494;8.530;2023-09-08T11:25:26;5.45;;;4.28;;
27402;SDS011;14862;49.494;8.530;2023-09-08T11:27:51;6.03;;;4.45;;
27402;SDS011;14862;49.494;8.530;2023-09-08T11:30:17;5.93;;;4.67;;
27402;SDS011;14862;49.494;8.530;2023-09-08T11:32:42;5.10;;;4.60;;
27402;SDS011;14862;49.494;8.530;2023-09-08T11:35:08;5.40;;;4.75;;
27402;SDS011;14862;49.494;8.530;2023-09-08T11:37:35;6.00;;;4.65;;
27402;SDS011;14862;49.494;8.530;2023-09-08T11:40:01;6.40;;;4.32;;
27402;SDS011;14862;49.494;8.530;2023-09-08T11:42:27;5.30;;;4.70;;
27402;SDS011;14862;49.494;8.530;2023-09-08T11:44:53;5.05;;;4.55;;
27402;SDS011;14862;49.494;8.530;2023-09-08T11:47:18;6.95;;;4.85;;
27402;SDS011;14862;49.494;8.530;2023-09-08T11:49:43;6.97;;;5.18;;
27402;SDS011;14862;49.494;8.530;2023-09-08T11:52:09;5.75;;;4.95;;
27402;SDS011;14862;49.494;8.530;2023-09-08T11:54:35;6.35;;;4.38;;
27402;SDS011;14862;49.494;8.530;2023-09-08T11:57:01;5.05;;;4.40;;
27402;SDS011;14862;49.494;8.530;2023-09-08T11:59:32;7.05;;;4.50;;
27402;SDS011;14862;49.494;8.530;2023-09-08T12:01:58;7.05;;;4.55;;
27402;SDS011;14862;49.494;8.530;2023-09-08T12:04:24;4.72;;;4.30;;
27402;SDS011;14862;49.494;8.530;2023-09-08T12:06:49;4.57;;;3.97;;
27402;SDS011;14862;49.494;8.530;2023-09-08T12:09:16;7.63;;;5.20;;
27402;SDS011;14862;49.494;8.530;2023-09-08T12:11:41;7.55;;;4.82;;
27402;SDS011;14862;49.494;8.530;2023-09-08T12:14:08;10.88;;;5.55;;
27402;SDS011;14862;49.494;8.530;2023-09-08T12:16:34;18.88;;;6.88;;
27402;SDS011;14862;49.494;8.530;2023-09-08T12:19:00;8.93;;;5.30;;
27402;SDS011;14862;49.494;8.530;2023-09-08T12:21:25;5.40;;;4.03;;
27402;SDS011;14862;49.494;8.530;2023-09-08T12:23:51;6.47;;;4.50;;
27402;SDS011;14862;49.494;8.530;2023-09-08T12:26:17;5.65;;;5.05;;
27402;SDS011;14862;49.494;8.530;2023-09-08T12:28:42;5.00;;;4.30;;
27402;SDS011;14862;49.494;8.530;2023-09-08T12:31:08;8.68;;;4.57;;
27402;SDS011;14862;49.494;8.530;2023-09-08T12:33:34;4.82;;;4.30;;
27402;SDS011;14862;49.494;8.530;2023-09-08T12:35:59;4.63;;;4.10;;
27402;SDS011;14862;49.494;8.530;2023-09-08T12:38:30;5.20;;;4.43;;
27402;SDS011;14862;49.494;8.530;2023-09-08T12:40:55;4.97;;;3.90;;
27402;SDS011;14862;49.494;8.530;2023-09-08T12:43:20;6.05;;;4.05;;
27402;SDS011;14862;49.494;8.530;2023-09-08T12:45:45;4.57;;;4.00;;
27402;SDS011;14862;49.494;8.530;2023-09-08T12:48:11;5.95;;;4.40;;
27402;SDS011;14862;49.494;8.530;2023-09-08T12:50:36;5.10;;;4.50;;
27402;SDS011;14862;49.494;8.530;2023-09-08T12:53:02;4.90;;;4.40;;
27402;SDS011;14862;49.494;8.530;2023-09-08T12:55:27;5.05;;;4.22;;
27402;SDS011;14862;49.494;8.530;2023-09-08T12:57:52;7.63;;;4.80;;
27402;SDS011;14862;49.494;8.530;2023-09-08T13:00:19;6.05;;;4.20;;
27402;SDS011;14862;49.494;8.530;2023-09-08T13:02:45;8.10;;;4.57;;
27402;SDS011;14862;49.494;8.530;2023-09-08T13:05:10;4.60;;;4.03;;
27402;SDS011;14862;49.494;8.530;2023-09-08T13:07:35;6.10;;;4.30;;
27402;SDS011;14862;49.494;8.530;2023-09-08T13:10:00;6.50;;;4.77;;
27402;SDS011;14862;49.494;8.530;2023-09-08T13:12:26;5.88;;;4.15;;
27402;SDS011;14862;49.494;8.530;2023-09-08T13:14:51;5.70;;;4.10;;
27402;SDS011;14862;49.494;8.530;2023-09-08T13:17:16;4.50;;;4.10;;
27402;SDS011;14862;49.494;8.530;2023-09-08T13:19:42;4.57;;;4.15;;
27402;SDS011;14862;49.494;8.530;2023-09-08T13:22:08;4.88;;;4.20;;
27402;SDS011;14862;49.494;8.530;2023-09-08T13:24:33;4.45;;;3.72;;
27402;SDS011;14862;49.494;8.530;2023-09-08T13:27:01;4.63;;;4.13;;
27402;SDS011;14862;49.494;8.530;2023-09-08T13:29:26;4.70;;;4.25;;
27402;SDS011;14862;49.494;8.530;2023-09-08T13:31:52;5.22;;;4.13;;
27402;SDS011;14862;49.494;8.530;2023-09-08T13:34:18;4.38;;;3.97;;
27402;SDS011;14862;49.494;8.530;2023-09-08T13:36:43;5.07;;;4.50;;
27402;SDS011;14862;49.494;8.530;2023-09-08T13:39:08;6.20;;;4.20;;
27402;SDS011;14862;49.494;8.530;2023-09-08T13:41:46;5.73;;;4.00;;
27402;SDS011;14862;49.494;8.530;2023-09-08T13:44:11;5.18;;;4.18;;
27402;SDS011;14862;49.494;8.530;2023-09-08T13:46:37;4.20;;;3.80;;
27402;SDS011;14862;49.494;8.530;2023-09-08T13:49:02;6.03;;;4.30;;
27402;SDS011;14862;49.494;8.530;2023-09-08T13:51:27;8.88;;;3.85;;
27402;SDS011;14862;49.494;8.530;2023-09-08T13:53:53;5.72;;;4.38;;
27402;SDS011;14862;49.494;8.530;2023-09-08T13:56:18;4.37;;;4.00;;
27402;SDS011;14862;49.494;8.530;2023-09-08T13:58:43;5.23;;;4.33;;
27402;SDS011;14862;49.494;8.530;2023-09-08T14:01:10;5.15;;;4.13;;
27402;SDS011;14862;49.494;8.530;2023-09-08T14:03:35;5.28;;;4.43;;
27402;SDS011;14862;49.494;8.530;2023-09-08T14:06:00;4.88;;;4.35;;
27402;SDS011;14862;49.494;8.530;2023-09-08T14:08:26;6.53;;;4.47;;
27402;SDS011;14862;49.494;8.530;2023-09-08T14:10:52;4.77;;;4.37;;
27402;SDS011;14862;49.494;8.530;2023-09-08T14:13:18;5.43;;;4.55;;
27402;SDS011;14862;49.494;8.530;2023-09-08T14:15:43;6.00;;;4.60;;
27402;SDS011;14862;49.494;8.530;2023-09-08T14:18:08;4.65;;;4.22;;
27402;SDS011;14862;49.494;8.530;2023-09-08T14:20:35;4.38;;;3.97;;
27402;SDS011;14862;49.494;8.530;2023-09-08T14:23:00;5.85;;;4.30;;
27402;SDS011;14862;49.494;8.530;2023-09-08T14:25:25;5.22;;;4.63;;
27402;SDS011;14862;49.494;8.530;2023-09-08T14:27:50;4.73;;;4.20;;
27402;SDS011;14862;49.494;8.530;2023-09-08T14:30:15;4.77;;;4.20;;
27402;SDS011;14862;49.494;8.530;2023-09-08T14:32:41;4.60;;;4.03;;
27402;SDS011;14862;49.494;8.530;2023-09-08T14:35:06;5.87;;;4.60;;
27402;SDS011;14862;49.494;8.530;2023-09-08T14:37:31;5.63;;;4.78;;
27402;SDS011;14862;49.494;8.530;2023-09-08T14:39:57;7.43;;;4.22;;
27402;SDS011;14862;49.494;8.530;2023-09-08T14:42:22;7.63;;;4.30;;